sensor_id;sensor_type;location;lat;lon;timestamp;temperature;humidity
15630;DHT22;7914;50.842;0.166;2022-12-18T00:02:01;0.70;99.90
15630;DHT22;7914;50.842;0.166;2022-12-18T00:04:27;0.70;99.90
15630;DHT22;7914;50.842;0.166;2022-12-18T00:06:53;0.70;99.90
15630;DHT22;7914;50.842;0.166;2022-12-18T00:09:19;1.70;99.90
15630;DHT22;7914;50.842;0.166;2022-12-18T00:11:45;0.70;99.90
15630;DHT22;7914;50.842;0.166;2022-12-18T00:14:12;0.70;99.90
15630;DHT22;7914;50.842;0.166;2022-12-18T00:16:38;0.60;99.90
15630;DHT22;7914;50.842;0.166;2022-12-18T00:19:04;0.60;99.90
15630;DHT22;7914;50.842;0.166;2022-12-18T00:21:31;0.60;99.90
15630;DHT22;7914;50.842;0.166;2022-12-18T00:23:58;0.60;99.90
15630;DHT22;7914;50.842;0.166;2022-12-18T00:26:27;0.60;99.90
15630;DHT22;7914;50.842;0.166;2022-12-18T00:28:53;0.60;99.90
15630;DHT22;7914;50.842;0.166;2022-12-18T00:31:21;0.60;99.90
15630;DHT22;7914;50.842;0.166;2022-12-18T00:33:47;0.60;99.90
15630;DHT22;7914;50.842;0.166;2022-12-18T00:36:18;0.70;99.90
15630;DHT22;7914;50.842;0.166;2022-12-18T00:38:45;0.70;99.90
15630;DHT22;7914;50.842;0.166;2022-12-18T00:41:13;0.70;99.90
15630;DHT22;7914;50.842;0.166;2022-12-18T00:43:39;0.70;99.90
15630;DHT22;7914;50.842;0.166;2022-12-18T00:46:05;0.70;99.90
15630;DHT22;7914;50.842;0.166;2022-12-18T00:48:31;0.70;99.90
15630;DHT22;7914;50.842;0.166;2022-12-18T00:50:57;0.70;99.90
15630;DHT22;7914;50.842;0.166;2022-12-18T00:53:23;0.80;99.90
15630;DHT22;7914;50.842;0.166;2022-12-18T00:55:48;0.80;99.90
15630;DHT22;7914;50.842;0.166;2022-12-18T00:58:15;0.90;99.90
15630;DHT22;7914;50.842;0.166;2022-12-18T01:00:42;0.90;99.90
15630;DHT22;7914;50.842;0.166;2022-12-18T01:03:09;0.80;99.90
15630;DHT22;7914;50.842;0.166;2022-12-18T01:05:39;0.90;99.90
15630;DHT22;7914;50.842;0.166;2022-12-18T01:08:05;0.90;99.90
15630;DHT22;7914;50.842;0.166;2022-12-18T01:10:31;0.90;99.90
15630;DHT22;7914;50.842;0.166;2022-12-18T01:12:56;0.90;99.90
15630;DHT22;7914;50.842;0.166;2022-12-18T01:15:22;0.80;99.90
15630;DHT22;7914;50.842;0.166;2022-12-18T01:17:48;0.80;99.90
15630;DHT22;7914;50.842;0.166;2022-12-18T01:20:13;0.80;99.90
15630;DHT22;7914;50.842;0.166;2022-12-18T01:22:39;0.70;99.90
15630;DHT22;7914;50.842;0.166;2022-12-18T01:25:05;0.60;99.90
15630;DHT22;7914;50.842;0.166;2022-12-18T01:27:33;0.50;99.90
15630;DHT22;7914;50.842;0.166;2022-12-18T01:29:58;0.50;99.90
15630;DHT22;7914;50.842;0.166;2022-12-18T01:32:24;0.40;99.90
15630;DHT22;7914;50.842;0.166;2022-12-18T01:34:50;0.50;99.90
15630;DHT22;7914;50.842;0.166;2022-12-18T01:37:15;0.40;99.90
15630;DHT22;7914;50.842;0.166;2022-12-18T01:39:41;0.50;99.90
15630;DHT22;7914;50.842;0.166;2022-12-18T01:42:12;0.50;99.90
15630;DHT22;7914;50.842;0.166;2022-12-18T01:44:55;0.50;99.90
15630;DHT22;7914;50.842;0.166;2022-12-18T01:47:39;0.50;99.90
15630;DHT22;7914;50.842;0.166;2022-12-18T01:50:13;0.40;99.90
15630;DHT22;7914;50.842;0.166;2022-12-18T01:52:45;0.50;99.90
15630;DHT22;7914;50.842;0.166;2022-12-18T01:55:12;0.60;99.90
15630;DHT22;7914;50.842;0.166;2022-12-18T01:57:40;0.70;99.90
15630;DHT22;7914;50.842;0.166;2022-12-18T02:00:15;0.70;99.90
15630;DHT22;7914;50.842;0.166;2022-12-18T02:02:43;0.70;99.90
15630;DHT22;7914;50.842;0.166;2022-12-18T02:05:10;0.70;99.90
15630;DHT22;7914;50.842;0.166;2022-12-18T02:08:09;0.70;99.90
15630;DHT22;7914;50.842;0.166;2022-12-18T02:10:51;0.80;99.90
15630;DHT22;7914;50.842;0.166;2022-12-18T02:13:32;0.90;99.90
15630;DHT22;7914;50.842;0.166;2022-12-18T02:18:56;0.90;99.90
15630;DHT22;7914;50.842;0.166;2022-12-18T02:29:24;1.20;99.90
15630;DHT22;7914;50.842;0.166;2022-12-18T02:31:56;1.30;99.90
15630;DHT22;7914;50.842;0.166;2022-12-18T02:34:31;1.30;99.90
15630;DHT22;7914;50.842;0.166;2022-12-18T02:36:59;1.30;99.90
15630;DHT22;7914;50.842;0.166;2022-12-18T02:39:27;1.30;99.90
15630;DHT22;7914;50.842;0.166;2022-12-18T02:41:54;1.30;99.90
15630;DHT22;7914;50.842;0.166;2022-12-18T02:44:20;1.30;99.90
15630;DHT22;7914;50.842;0.166;2022-12-18T02:46:50;1.20;99.90
15630;DHT22;7914;50.842;0.166;2022-12-18T02:49:44;1.30;99.90
15630;DHT22;7914;50.842;0.166;2022-12-18T02:57:58;1.30;99.90
15630;DHT22;7914;50.842;0.166;2022-12-18T03:05:37;1.10;99.90
15630;DHT22;7914;50.842;0.166;2022-12-18T03:08:15;1.10;99.90
15630;DHT22;7914;50.842;0.166;2022-12-18T03:10:47;1.10;99.90
15630;DHT22;7914;50.842;0.166;2022-12-18T03:13:23;1.30;99.90
15630;DHT22;7914;50.842;0.166;2022-12-18T03:15:53;1.30;99.90
15630;DHT22;7914;50.842;0.166;2022-12-18T03:18:29;1.30;99.90
15630;DHT22;7914;50.842;0.166;2022-12-18T03:20:58;1.30;99.90
15630;DHT22;7914;50.842;0.166;2022-12-18T03:23:29;1.20;99.90
15630;DHT22;7914;50.842;0.166;2022-12-18T03:26:00;1.20;99.90
15630;DHT22;7914;50.842;0.166;2022-12-18T03:28:28;1.30;99.90
15630;DHT22;7914;50.842;0.166;2022-12-18T03:30:57;1.20;99.90
15630;DHT22;7914;50.842;0.166;2022-12-18T03:33:51;1.20;99.90
15630;DHT22;7914;50.842;0.166;2022-12-18T03:36:17;1.10;99.90
15630;DHT22;7914;50.842;0.166;2022-12-18T03:38:42;1.20;99.90
15630;DHT22;7914;50.842;0.166;2022-12-18T03:49:22;1.40;99.90
15630;DHT22;7914;50.842;0.166;2022-12-18T03:51:53;1.40;99.90
15630;DHT22;7914;50.842;0.166;2022-12-18T03:54:20;1.40;99.90
15630;DHT22;7914;50.842;0.166;2022-12-18T03:56:48;1.40;99.90
15630;DHT22;7914;50.842;0.166;2022-12-18T03:59:17;1.40;99.90
15630;DHT22;7914;50.842;0.166;2022-12-18T04:01:47;1.40;99.90
15630;DHT22;7914;50.842;0.166;2022-12-18T04:04:15;1.40;99.90
15630;DHT22;7914;50.842;0.166;2022-12-18T04:06:42;1.40;99.90
15630;DHT22;7914;50.842;0.166;2022-12-18T04:09:09;1.50;99.90
15630;DHT22;7914;50.842;0.166;2022-12-18T04:11:35;1.50;99.90
15630;DHT22;7914;50.842;0.166;2022-12-18T04:14:01;1.60;99.90
15630;DHT22;7914;50.842;0.166;2022-12-18T04:16:27;1.50;99.90
15630;DHT22;7914;50.842;0.166;2022-12-18T04:18:53;1.60;99.90
15630;DHT22;7914;50.842;0.166;2022-12-18T04:21:19;1.60;99.90
15630;DHT22;7914;50.842;0.166;2022-12-18T04:23:45;1.60;99.90
15630;DHT22;7914;50.842;0.166;2022-12-18T04:26:11;1.60;99.90
15630;DHT22;7914;50.842;0.166;2022-12-18T04:28:37;1.60;99.90
15630;DHT22;7914;50.842;0.166;2022-12-18T04:31:03;1.60;99.90
15630;DHT22;7914;50.842;0.166;2022-12-18T04:33:28;1.60;99.90
15630;DHT22;7914;50.842;0.166;2022-12-18T04:35:54;1.70;99.90
15630;DHT22;7914;50.842;0.166;2022-12-18T04:38:20;1.70;95.70
15630;DHT22;7914;50.842;0.166;2022-12-18T04:40:45;1.80;59.60
15630;DHT22;7914;50.842;0.166;2022-12-18T04:43:11;1.80;34.00
15630;DHT22;7914;50.842;0.166;2022-12-18T04:45:37;1.80;18.10
15630;DHT22;7914;50.842;0.166;2022-12-18T04:48:03;1.80;1.00
15630;DHT22;7914;50.842;0.166;2022-12-18T04:50:29;1.90;1.00
15630;DHT22;7914;50.842;0.166;2022-12-18T04:52:56;1.90;1.00
15630;DHT22;7914;50.842;0.166;2022-12-18T04:55:24;2.00;1.00
15630;DHT22;7914;50.842;0.166;2022-12-18T04:57:50;2.00;1.00
15630;DHT22;7914;50.842;0.166;2022-12-18T05:00:16;2.00;1.00
15630;DHT22;7914;50.842;0.166;2022-12-18T05:02:42;2.00;1.00
15630;DHT22;7914;50.842;0.166;2022-12-18T05:05:08;2.00;1.00
15630;DHT22;7914;50.842;0.166;2022-12-18T05:07:34;2.00;1.00
15630;DHT22;7914;50.842;0.166;2022-12-18T05:09:59;2.00;1.00
15630;DHT22;7914;50.842;0.166;2022-12-18T05:12:25;2.00;1.00
15630;DHT22;7914;50.842;0.166;2022-12-18T05:14:51;2.00;1.00
15630;DHT22;7914;50.842;0.166;2022-12-18T05:17:16;1.90;1.00
15630;DHT22;7914;50.842;0.166;2022-12-18T05:19:42;2.00;1.00
15630;DHT22;7914;50.842;0.166;2022-12-18T05:22:08;2.00;1.00
15630;DHT22;7914;50.842;0.166;2022-12-18T05:24:34;2.00;1.00
15630;DHT22;7914;50.842;0.166;2022-12-18T05:26:59;2.00;1.00
15630;DHT22;7914;50.842;0.166;2022-12-18T05:29:25;2.00;1.00
15630;DHT22;7914;50.842;0.166;2022-12-18T05:31:51;2.10;1.00
15630;DHT22;7914;50.842;0.166;2022-12-18T05:34:17;2.10;1.00
15630;DHT22;7914;50.842;0.166;2022-12-18T05:36:42;2.10;1.00
15630;DHT22;7914;50.842;0.166;2022-12-18T05:39:08;2.10;1.00
15630;DHT22;7914;50.842;0.166;2022-12-18T05:41:34;2.00;1.00
15630;DHT22;7914;50.842;0.166;2022-12-18T05:43:59;2.00;1.00
15630;DHT22;7914;50.842;0.166;2022-12-18T05:46:25;1.90;1.00
15630;DHT22;7914;50.842;0.166;2022-12-18T05:48:51;1.90;1.00
15630;DHT22;7914;50.842;0.166;2022-12-18T05:51:19;1.90;1.00
15630;DHT22;7914;50.842;0.166;2022-12-18T05:53:45;1.90;1.00
15630;DHT22;7914;50.842;0.166;2022-12-18T05:56:16;1.90;1.00
15630;DHT22;7914;50.842;0.166;2022-12-18T05:58:43;2.00;1.00
15630;DHT22;7914;50.842;0.166;2022-12-18T06:01:11;2.10;1.00
15630;DHT22;7914;50.842;0.166;2022-12-18T06:03:38;2.20;1.00
15630;DHT22;7914;50.842;0.166;2022-12-18T06:06:04;2.30;1.00
15630;DHT22;7914;50.842;0.166;2022-12-18T06:08:29;2.40;1.00
15630;DHT22;7914;50.842;0.166;2022-12-18T06:10:55;2.40;1.00
15630;DHT22;7914;50.842;0.166;2022-12-18T06:13:22;2.50;1.00
15630;DHT22;7914;50.842;0.166;2022-12-18T06:15:48;2.40;1.00
15630;DHT22;7914;50.842;0.166;2022-12-18T06:18:13;2.30;1.00
15630;DHT22;7914;50.842;0.166;2022-12-18T06:20:39;2.20;1.00
15630;DHT22;7914;50.842;0.166;2022-12-18T06:23:07;2.20;1.00
15630;DHT22;7914;50.842;0.166;2022-12-18T06:25:32;2.20;1.00
15630;DHT22;7914;50.842;0.166;2022-12-18T06:27:58;2.10;1.00
15630;DHT22;7914;50.842;0.166;2022-12-18T06:30:24;2.10;1.00
15630;DHT22;7914;50.842;0.166;2022-12-18T06:32:50;2.20;32.70
15630;DHT22;7914;50.842;0.166;2022-12-18T06:35:16;2.30;8.30
15630;DHT22;7914;50.842;0.166;2022-12-18T06:37:41;2.40;1.00
15630;DHT22;7914;50.842;0.166;2022-12-18T06:40:07;2.50;1.00
15630;DHT22;7914;50.842;0.166;2022-12-18T06:42:33;2.50;1.00
15630;DHT22;7914;50.842;0.166;2022-12-18T06:44:59;2.50;1.00
15630;DHT22;7914;50.842;0.166;2022-12-18T06:47:24;2.50;1.00
15630;DHT22;7914;50.842;0.166;2022-12-18T06:49:50;2.50;1.00
15630;DHT22;7914;50.842;0.166;2022-12-18T06:52:16;2.50;1.00
15630;DHT22;7914;50.842;0.166;2022-12-18T06:54:41;2.50;1.00
15630;DHT22;7914;50.842;0.166;2022-12-18T06:57:07;2.50;1.00
15630;DHT22;7914;50.842;0.166;2022-12-18T06:59:33;2.60;1.00
15630;DHT22;7914;50.842;0.166;2022-12-18T07:01:58;2.70;1.00
15630;DHT22;7914;50.842;0.166;2022-12-18T07:04:31;2.60;3.10
15630;DHT22;7914;50.842;0.166;2022-12-18T07:06:57;2.60;11.00
15630;DHT22;7914;50.842;0.166;2022-12-18T07:09:23;2.70;1.30
15630;DHT22;7914;50.842;0.166;2022-12-18T07:11:48;2.80;1.00
15630;DHT22;7914;50.842;0.166;2022-12-18T07:14:14;2.80;1.00
15630;DHT22;7914;50.842;0.166;2022-12-18T07:16:40;2.80;1.00
15630;DHT22;7914;50.842;0.166;2022-12-18T07:19:06;2.70;1.00
15630;DHT22;7914;50.842;0.166;2022-12-18T07:21:31;2.70;1.00
15630;DHT22;7914;50.842;0.166;2022-12-18T07:23:57;2.60;1.00
15630;DHT22;7914;50.842;0.166;2022-12-18T07:26:23;2.60;1.00
15630;DHT22;7914;50.842;0.166;2022-12-18T07:28:49;2.70;1.00
15630;DHT22;7914;50.842;0.166;2022-12-18T07:31:18;2.70;1.00
15630;DHT22;7914;50.842;0.166;2022-12-18T07:33:45;2.80;1.00
15630;DHT22;7914;50.842;0.166;2022-12-18T07:36:11;2.90;1.00
15630;DHT22;7914;50.842;0.166;2022-12-18T07:38:37;2.90;1.00
15630;DHT22;7914;50.842;0.166;2022-12-18T07:41:10;2.90;1.00
15630;DHT22;7914;50.842;0.166;2022-12-18T07:43:37;3.00;1.00
15630;DHT22;7914;50.842;0.166;2022-12-18T07:46:03;3.00;1.00
15630;DHT22;7914;50.842;0.166;2022-12-18T07:48:30;3.00;1.00
15630;DHT22;7914;50.842;0.166;2022-12-18T07:50:59;3.00;1.00
15630;DHT22;7914;50.842;0.166;2022-12-18T07:53:26;3.00;1.00
15630;DHT22;7914;50.842;0.166;2022-12-18T07:56:04;3.00;1.00
15630;DHT22;7914;50.842;0.166;2022-12-18T07:58:30;3.00;1.00
15630;DHT22;7914;50.842;0.166;2022-12-18T08:01:07;3.00;1.00
15630;DHT22;7914;50.842;0.166;2022-12-18T08:03:33;2.90;1.00
15630;DHT22;7914;50.842;0.166;2022-12-18T08:06:00;3.00;1.00
15630;DHT22;7914;50.842;0.166;2022-12-18T08:08:27;3.00;1.00
15630;DHT22;7914;50.842;0.166;2022-12-18T08:10:52;3.00;1.00
15630;DHT22;7914;50.842;0.166;2022-12-18T08:13:18;3.00;1.00
15630;DHT22;7914;50.842;0.166;2022-12-18T08:15:44;3.00;1.00
15630;DHT22;7914;50.842;0.166;2022-12-18T08:18:09;3.00;1.00
15630;DHT22;7914;50.842;0.166;2022-12-18T08:20:35;2.90;1.00
15630;DHT22;7914;50.842;0.166;2022-12-18T08:23:00;2.90;1.00
15630;DHT22;7914;50.842;0.166;2022-12-18T08:25:26;2.90;1.00
15630;DHT22;7914;50.842;0.166;2022-12-18T08:27:52;2.90;1.00
15630;DHT22;7914;50.842;0.166;2022-12-18T08:30:17;2.90;1.00
15630;DHT22;7914;50.842;0.166;2022-12-18T08:32:43;2.90;1.00
15630;DHT22;7914;50.842;0.166;2022-12-18T08:35:09;2.90;1.00
15630;DHT22;7914;50.842;0.166;2022-12-18T08:37:37;2.80;1.00
15630;DHT22;7914;50.842;0.166;2022-12-18T08:40:03;2.80;1.00
15630;DHT22;7914;50.842;0.166;2022-12-18T08:42:28;2.90;1.00
15630;DHT22;7914;50.842;0.166;2022-12-18T08:45:13;2.80;1.00
15630;DHT22;7914;50.842;0.166;2022-12-18T08:47:38;2.80;6.10
15630;DHT22;7914;50.842;0.166;2022-12-18T08:50:04;2.80;27.00
15630;DHT22;7914;50.842;0.166;2022-12-18T08:52:32;2.80;33.60
15630;DHT22;7914;50.842;0.166;2022-12-18T08:54:58;2.80;49.50
15630;DHT22;7914;50.842;0.166;2022-12-18T08:57:23;2.80;69.30
15630;DHT22;7914;50.842;0.166;2022-12-18T08:59:49;2.90;91.80
15630;DHT22;7914;50.842;0.166;2022-12-18T09:02:14;2.90;99.90
15630;DHT22;7914;50.842;0.166;2022-12-18T09:04:40;2.90;99.90
15630;DHT22;7914;50.842;0.166;2022-12-18T09:07:06;2.90;99.90
15630;DHT22;7914;50.842;0.166;2022-12-18T09:09:32;3.00;99.90
15630;DHT22;7914;50.842;0.166;2022-12-18T09:11:58;2.90;99.90
15630;DHT22;7914;50.842;0.166;2022-12-18T09:14:23;3.00;99.90
15630;DHT22;7914;50.842;0.166;2022-12-18T09:16:49;3.00;99.90
15630;DHT22;7914;50.842;0.166;2022-12-18T09:19:15;3.00;99.90
15630;DHT22;7914;50.842;0.166;2022-12-18T09:21:40;3.10;99.90
15630;DHT22;7914;50.842;0.166;2022-12-18T09:24:06;3.10;99.90
15630;DHT22;7914;50.842;0.166;2022-12-18T09:26:32;3.10;99.90
15630;DHT22;7914;50.842;0.166;2022-12-18T09:28:57;3.00;99.90
15630;DHT22;7914;50.842;0.166;2022-12-18T09:31:24;3.10;99.90
15630;DHT22;7914;50.842;0.166;2022-12-18T09:33:50;3.10;99.90
15630;DHT22;7914;50.842;0.166;2022-12-18T09:36:17;3.10;99.90
15630;DHT22;7914;50.842;0.166;2022-12-18T09:38:43;3.20;99.90
15630;DHT22;7914;50.842;0.166;2022-12-18T09:43:57;3.20;99.90
15630;DHT22;7914;50.842;0.166;2022-12-18T09:46:28;3.30;99.90
15630;DHT22;7914;50.842;0.166;2022-12-18T09:48:59;3.30;99.90
15630;DHT22;7914;50.842;0.166;2022-12-18T09:51:43;3.30;99.90
15630;DHT22;7914;50.842;0.166;2022-12-18T09:54:32;3.40;99.90
15630;DHT22;7914;50.842;0.166;2022-12-18T09:56:59;3.40;99.90
15630;DHT22;7914;50.842;0.166;2022-12-18T09:59:29;3.40;99.90
15630;DHT22;7914;50.842;0.166;2022-12-18T10:01:56;3.40;99.90
15630;DHT22;7914;50.842;0.166;2022-12-18T10:04:22;3.40;99.90
15630;DHT22;7914;50.842;0.166;2022-12-18T10:07:37;3.30;99.90
15630;DHT22;7914;50.842;0.166;2022-12-18T10:14:50;3.40;99.90
15630;DHT22;7914;50.842;0.166;2022-12-18T10:17:48;3.60;99.90
15630;DHT22;7914;50.842;0.166;2022-12-18T10:22:56;3.70;99.90
15630;DHT22;7914;50.842;0.166;2022-12-18T10:25:50;3.70;99.90
15630;DHT22;7914;50.842;0.166;2022-12-18T10:28:19;3.70;99.90
15630;DHT22;7914;50.842;0.166;2022-12-18T10:30:45;3.70;99.90
15630;DHT22;7914;50.842;0.166;2022-12-18T10:33:31;3.70;99.90
15630;DHT22;7914;50.842;0.166;2022-12-18T10:35:57;3.70;99.90
15630;DHT22;7914;50.842;0.166;2022-12-18T10:38:31;3.60;99.90
15630;DHT22;7914;50.842;0.166;2022-12-18T10:41:04;3.70;99.90
15630;DHT22;7914;50.842;0.166;2022-12-18T10:43:35;3.60;99.90
15630;DHT22;7914;50.842;0.166;2022-12-18T10:48:27;3.70;99.90
15630;DHT22;7914;50.842;0.166;2022-12-18T10:50:53;3.70;99.90
15630;DHT22;7914;50.842;0.166;2022-12-18T10:53:25;3.70;99.90
15630;DHT22;7914;50.842;0.166;2022-12-18T10:55:53;3.70;99.90
15630;DHT22;7914;50.842;0.166;2022-12-18T11:01:11;3.70;99.90
15630;DHT22;7914;50.842;0.166;2022-12-18T11:04:00;3.70;99.90
15630;DHT22;7914;50.842;0.166;2022-12-18T11:06:25;3.70;99.90
15630;DHT22;7914;50.842;0.166;2022-12-18T11:09:20;3.80;99.90
15630;DHT22;7914;50.842;0.166;2022-12-18T11:11:52;3.80;99.90
15630;DHT22;7914;50.842;0.166;2022-12-18T11:16:49;3.70;99.90
15630;DHT22;7914;50.842;0.166;2022-12-18T11:19:29;3.70;99.90
15630;DHT22;7914;50.842;0.166;2022-12-18T11:21:56;3.70;99.90
15630;DHT22;7914;50.842;0.166;2022-12-18T11:24:31;3.70;99.90
15630;DHT22;7914;50.842;0.166;2022-12-18T11:26:59;3.60;99.90
15630;DHT22;7914;50.842;0.166;2022-12-18T11:29:45;3.60;99.90
15630;DHT22;7914;50.842;0.166;2022-12-18T11:35:15;3.60;99.90
15630;DHT22;7914;50.842;0.166;2022-12-18T11:37:47;3.60;99.90
15630;DHT22;7914;50.842;0.166;2022-12-18T11:40:18;3.60;99.90
15630;DHT22;7914;50.842;0.166;2022-12-18T11:42:57;3.60;99.90
15630;DHT22;7914;50.842;0.166;2022-12-18T11:45:34;3.70;99.90
15630;DHT22;7914;50.842;0.166;2022-12-18T11:48:21;3.70;99.90
15630;DHT22;7914;50.842;0.166;2022-12-18T11:50:56;3.70;99.90
15630;DHT22;7914;50.842;0.166;2022-12-18T11:53:23;3.80;99.90
15630;DHT22;7914;50.842;0.166;2022-12-18T11:56:04;3.70;99.90
15630;DHT22;7914;50.842;0.166;2022-12-18T11:58:46;3.80;99.90
15630;DHT22;7914;50.842;0.166;2022-12-18T12:10:01;3.80;99.90
15630;DHT22;7914;50.842;0.166;2022-12-18T12:15:46;3.80;99.90
15630;DHT22;7914;50.842;0.166;2022-12-18T12:21:37;3.80;99.90
15630;DHT22;7914;50.842;0.166;2022-12-18T12:27:21;3.80;99.90
15630;DHT22;7914;50.842;0.166;2022-12-18T12:35:39;3.80;99.90
15630;DHT22;7914;50.842;0.166;2022-12-18T12:38:08;3.80;99.90
15630;DHT22;7914;50.842;0.166;2022-12-18T12:40:51;3.80;99.90
15630;DHT22;7914;50.842;0.166;2022-12-18T12:43:38;3.80;99.90
15630;DHT22;7914;50.842;0.166;2022-12-18T12:46:10;3.80;99.90
15630;DHT22;7914;50.842;0.166;2022-12-18T12:51:49;3.80;99.90
15630;DHT22;7914;50.842;0.166;2022-12-18T12:53:50;3.90;99.90
15630;DHT22;7914;50.842;0.166;2022-12-18T12:56:18;3.90;99.90
15630;DHT22;7914;50.842;0.166;2022-12-18T12:59:11;3.90;99.90
15630;DHT22;7914;50.842;0.166;2022-12-18T13:01:53;3.90;99.90
15630;DHT22;7914;50.842;0.166;2022-12-18T13:07:35;3.90;99.90
15630;DHT22;7914;50.842;0.166;2022-12-18T13:15:40;4.00;99.90
15630;DHT22;7914;50.842;0.166;2022-12-18T13:20:47;4.20;99.90
15630;DHT22;7914;50.842;0.166;2022-12-18T13:25:55;4.20;99.90
15630;DHT22;7914;50.842;0.166;2022-12-18T13:30:53;4.20;99.90
15630;DHT22;7914;50.842;0.166;2022-12-18T13:38:41;4.30;99.90
15630;DHT22;7914;50.842;0.166;2022-12-18T13:43:55;4.40;99.90
15630;DHT22;7914;50.842;0.166;2022-12-18T13:46:41;4.40;99.90
15630;DHT22;7914;50.842;0.166;2022-12-18T13:51:47;4.60;99.90
15630;DHT22;7914;50.842;0.166;2022-12-18T13:56:48;4.60;99.90
15630;DHT22;7914;50.842;0.166;2022-12-18T13:59:24;4.70;99.90
15630;DHT22;7914;50.842;0.166;2022-12-18T14:01:55;4.70;99.90
15630;DHT22;7914;50.842;0.166;2022-12-18T14:04:25;4.80;99.90
15630;DHT22;7914;50.842;0.166;2022-12-18T14:06:55;4.80;99.90
15630;DHT22;7914;50.842;0.166;2022-12-18T14:09:25;4.90;99.90
15630;DHT22;7914;50.842;0.166;2022-12-18T14:11:52;4.90;99.90
15630;DHT22;7914;50.842;0.166;2022-12-18T14:14:41;4.90;99.90
15630;DHT22;7914;50.842;0.166;2022-12-18T14:17:10;5.00;99.90
15630;DHT22;7914;50.842;0.166;2022-12-18T14:19:37;5.00;99.90
15630;DHT22;7914;50.842;0.166;2022-12-18T14:22:15;5.00;99.90
15630;DHT22;7914;50.842;0.166;2022-12-18T14:24:42;5.10;99.90
15630;DHT22;7914;50.842;0.166;2022-12-18T14:27:22;5.00;99.90
15630;DHT22;7914;50.842;0.166;2022-12-18T14:29:48;5.10;99.90
15630;DHT22;7914;50.842;0.166;2022-12-18T14:32:19;5.10;99.90
15630;DHT22;7914;50.842;0.166;2022-12-18T14:34:50;5.20;99.90
15630;DHT22;7914;50.842;0.166;2022-12-18T14:37:22;5.20;99.90
15630;DHT22;7914;50.842;0.166;2022-12-18T14:40:04;5.30;99.90
15630;DHT22;7914;50.842;0.166;2022-12-18T14:42:37;5.40;99.90
15630;DHT22;7914;50.842;0.166;2022-12-18T14:51:06;5.50;99.90
15630;DHT22;7914;50.842;0.166;2022-12-18T14:53:42;5.50;99.90
15630;DHT22;7914;50.842;0.166;2022-12-18T14:56:21;5.60;99.90
15630;DHT22;7914;50.842;0.166;2022-12-18T14:58:49;5.60;99.90
15630;DHT22;7914;50.842;0.166;2022-12-18T15:01:37;5.70;99.90
15630;DHT22;7914;50.842;0.166;2022-12-18T15:04:05;5.80;99.90
15630;DHT22;7914;50.842;0.166;2022-12-18T15:06:48;5.80;99.90
15630;DHT22;7914;50.842;0.166;2022-12-18T15:09:26;5.80;99.90
15630;DHT22;7914;50.842;0.166;2022-12-18T15:11:59;5.90;99.90
15630;DHT22;7914;50.842;0.166;2022-12-18T15:14:41;5.90;99.90
15630;DHT22;7914;50.842;0.166;2022-12-18T15:17:22;5.90;99.90
15630;DHT22;7914;50.842;0.166;2022-12-18T15:19:51;5.90;99.90
15630;DHT22;7914;50.842;0.166;2022-12-18T15:22:34;6.00;99.90
15630;DHT22;7914;50.842;0.166;2022-12-18T15:25:00;6.00;99.90
15630;DHT22;7914;50.842;0.166;2022-12-18T15:27:31;6.00;99.90
15630;DHT22;7914;50.842;0.166;2022-12-18T15:30:15;6.00;99.90
15630;DHT22;7914;50.842;0.166;2022-12-18T15:32:42;6.10;99.90
15630;DHT22;7914;50.842;0.166;2022-12-18T15:37:33;6.10;99.90
15630;DHT22;7914;50.842;0.166;2022-12-18T15:39:59;6.10;99.90
15630;DHT22;7914;50.842;0.166;2022-12-18T15:42:25;6.10;99.90
15630;DHT22;7914;50.842;0.166;2022-12-18T15:45:12;6.20;99.90
15630;DHT22;7914;50.842;0.166;2022-12-18T15:47:39;6.20;99.90
15630;DHT22;7914;50.842;0.166;2022-12-18T15:50:05;6.20;99.90
15630;DHT22;7914;50.842;0.166;2022-12-18T15:52:39;6.20;99.90
15630;DHT22;7914;50.842;0.166;2022-12-18T15:55:13;6.20;99.90
15630;DHT22;7914;50.842;0.166;2022-12-18T15:57:57;6.20;99.90
15630;DHT22;7914;50.842;0.166;2022-12-18T16:00:23;6.20;99.90
15630;DHT22;7914;50.842;0.166;2022-12-18T16:02:49;6.20;99.90
15630;DHT22;7914;50.842;0.166;2022-12-18T16:05:16;6.20;99.90
15630;DHT22;7914;50.842;0.166;2022-12-18T16:07:43;6.30;99.90
15630;DHT22;7914;50.842;0.166;2022-12-18T16:10:09;6.30;99.90
15630;DHT22;7914;50.842;0.166;2022-12-18T16:12:35;6.30;99.90
15630;DHT22;7914;50.842;0.166;2022-12-18T16:15:01;6.30;99.90
15630;DHT22;7914;50.842;0.166;2022-12-18T16:17:27;6.30;99.90
15630;DHT22;7914;50.842;0.166;2022-12-18T16:19:53;6.30;99.90
15630;DHT22;7914;50.842;0.166;2022-12-18T16:22:22;6.40;99.90
15630;DHT22;7914;50.842;0.166;2022-12-18T16:24:49;6.40;99.90
15630;DHT22;7914;50.842;0.166;2022-12-18T16:27:15;6.50;99.90
15630;DHT22;7914;50.842;0.166;2022-12-18T16:29:41;6.50;99.90
15630;DHT22;7914;50.842;0.166;2022-12-18T16:32:14;6.50;99.90
15630;DHT22;7914;50.842;0.166;2022-12-18T16:34:41;6.60;99.90
15630;DHT22;7914;50.842;0.166;2022-12-18T16:37:09;6.60;99.90
15630;DHT22;7914;50.842;0.166;2022-12-18T16:39:36;6.50;99.90
15630;DHT22;7914;50.842;0.166;2022-12-18T16:42:10;6.40;99.90
15630;DHT22;7914;50.842;0.166;2022-12-18T16:44:38;6.70;99.90
15630;DHT22;7914;50.842;0.166;2022-12-18T16:47:03;6.40;99.90
15630;DHT22;7914;50.842;0.166;2022-12-18T16:49:29;6.40;99.90
15630;DHT22;7914;50.842;0.166;2022-12-18T16:51:55;6.50;99.90
15630;DHT22;7914;50.842;0.166;2022-12-18T16:54:20;6.30;99.90
15630;DHT22;7914;50.842;0.166;2022-12-18T16:56:46;6.30;99.90
15630;DHT22;7914;50.842;0.166;2022-12-18T16:59:14;6.30;99.90
15630;DHT22;7914;50.842;0.166;2022-12-18T17:01:40;6.30;99.90
15630;DHT22;7914;50.842;0.166;2022-12-18T17:04:06;6.30;99.90
15630;DHT22;7914;50.842;0.166;2022-12-18T17:06:34;6.40;99.90
15630;DHT22;7914;50.842;0.166;2022-12-18T17:09:06;6.40;99.90
15630;DHT22;7914;50.842;0.166;2022-12-18T17:11:33;6.40;99.90
15630;DHT22;7914;50.842;0.166;2022-12-18T17:16:33;6.40;99.90
15630;DHT22;7914;50.842;0.166;2022-12-18T17:18:58;6.40;99.90
15630;DHT22;7914;50.842;0.166;2022-12-18T17:21:24;6.40;99.90
15630;DHT22;7914;50.842;0.166;2022-12-18T17:23:50;6.40;99.90
15630;DHT22;7914;50.842;0.166;2022-12-18T17:26:15;6.50;99.90
15630;DHT22;7914;50.842;0.166;2022-12-18T17:28:41;6.40;99.90
15630;DHT22;7914;50.842;0.166;2022-12-18T17:31:17;6.40;99.90
15630;DHT22;7914;50.842;0.166;2022-12-18T17:33:43;6.50;99.90
15630;DHT22;7914;50.842;0.166;2022-12-18T17:36:09;6.50;99.90
15630;DHT22;7914;50.842;0.166;2022-12-18T17:38:36;6.50;99.90
15630;DHT22;7914;50.842;0.166;2022-12-18T17:41:07;6.60;99.90
15630;DHT22;7914;50.842;0.166;2022-12-18T17:43:33;6.60;99.90
15630;DHT22;7914;50.842;0.166;2022-12-18T17:46:11;6.60;99.90
15630;DHT22;7914;50.842;0.166;2022-12-18T17:48:37;6.60;99.90
15630;DHT22;7914;50.842;0.166;2022-12-18T17:51:05;6.60;99.90
15630;DHT22;7914;50.842;0.166;2022-12-18T17:53:31;6.60;99.90
15630;DHT22;7914;50.842;0.166;2022-12-18T17:55:58;6.70;99.90
15630;DHT22;7914;50.842;0.166;2022-12-18T17:58:27;6.70;99.90
15630;DHT22;7914;50.842;0.166;2022-12-18T18:00:52;6.80;99.90
15630;DHT22;7914;50.842;0.166;2022-12-18T18:03:18;6.80;99.90
15630;DHT22;7914;50.842;0.166;2022-12-18T18:05:44;6.80;99.90
15630;DHT22;7914;50.842;0.166;2022-12-18T18:08:09;6.80;99.90
15630;DHT22;7914;50.842;0.166;2022-12-18T18:10:36;6.80;99.90
15630;DHT22;7914;50.842;0.166;2022-12-18T18:13:03;6.90;99.90
15630;DHT22;7914;50.842;0.166;2022-12-18T18:15:57;6.90;99.90
15630;DHT22;7914;50.842;0.166;2022-12-18T18:18:23;7.00;99.90